sensor_id;sensor_type;location;lat;lon;timestamp;P1;durP1;ratioP1;P2;durP2;ratioP2
59876;SDS011;74472;51.140;17.184;2024-01-30T00:00:33;34.63;;;20.17;;
59876;SDS011;74472;51.140;17.184;2024-01-30T00:02:58;37.38;;;18.33;;
59876;SDS011;74472;51.140;17.184;2024-01-30T00:05:23;31.85;;;15.80;;
59876;SDS011;74472;51.140;17.184;2024-01-30T00:07:48;29.42;;;15.32;;
59876;SDS011;74472;51.140;17.184;2024-01-30T00:10:14;30.65;;;16.60;;
59876;SDS011;74472;51.140;17.184;2024-01-30T00:12:39;27.70;;;13.25;;
59876;SDS011;74472;51.140;17.184;2024-01-30T00:15:04;31.80;;;16.52;;
59876;SDS011;74472;51.140;17.184;2024-01-30T00:17:33;22.02;;;13.10;;
59876;SDS011;74472;51.140;17.184;2024-01-30T00:19:58;22.65;;;12.05;;
59876;SDS011;74472;51.140;17.184;2024-01-30T00:22:23;17.38;;;9.63;;
59876;SDS011;74472;51.140;17.184;2024-01-30T00:24:49;19.67;;;11.48;;
59876;SDS011;74472;51.140;17.184;2024-01-30T00:27:14;18.95;;;10.10;;
59876;SDS011;74472;51.140;17.184;2024-01-30T00:29:39;21.50;;;11.05;;
59876;SDS011;74472;51.140;17.184;2024-01-30T00:32:05;19.38;;;10.30;;
59876;SDS011;74472;51.140;17.184;2024-01-30T00:34:30;17.08;;;9.05;;
59876;SDS011;74472;51.140;17.184;2024-01-30T00:36:56;19.02;;;10.77;;
59876;SDS011;74472;51.140;17.184;2024-01-30T00:39:21;17.55;;;9.95;;
59876;SDS011;74472;51.140;17.184;2024-01-30T00:41:46;14.55;;;7.95;;
59876;SDS011;74472;51.140;17.184;2024-01-30T00:44:11;15.23;;;8.15;;
59876;SDS011;74472;51.140;17.184;2024-01-30T00:46:37;13.63;;;7.97;;
59876;SDS011;74472;51.140;17.184;2024-01-30T00:49:02;14.18;;;7.72;;
59876;SDS011;74472;51.140;17.184;2024-01-30T00:51:27;18.67;;;9.02;;
59876;SDS011;74472;51.140;17.184;2024-01-30T00:53:54;15.13;;;9.63;;
59876;SDS011;74472;51.140;17.184;2024-01-30T00:56:20;17.15;;;10.18;;
59876;SDS011;74472;51.140;17.184;2024-01-30T00:58:45;26.63;;;13.43;;
59876;SDS011;74472;51.140;17.184;2024-01-30T01:01:10;26.88;;;13.73;;
59876;SDS011;74472;51.140;17.184;2024-01-30T01:03:36;37.42;;;15.15;;
59876;SDS011;74472;51.140;17.184;2024-01-30T01:06:01;30.95;;;14.45;;
59876;SDS011;74472;51.140;17.184;2024-01-30T01:08:26;30.27;;;15.55;;
59876;SDS011;74472;51.140;17.184;2024-01-30T01:10:52;28.30;;;13.55;;
59876;SDS011;74472;51.140;17.184;2024-01-30T01:13:17;25.98;;;12.48;;
59876;SDS011;74472;51.140;17.184;2024-01-30T01:15:42;26.30;;;11.88;;
59876;SDS011;74472;51.140;17.184;2024-01-30T01:18:08;32.15;;;12.65;;
59876;SDS011;74472;51.140;17.184;2024-01-30T01:20:33;34.17;;;13.55;;
59876;SDS011;74472;51.140;17.184;2024-01-30T01:22:58;33.42;;;14.73;;
59876;SDS011;74472;51.140;17.184;2024-01-30T01:25:23;29.58;;;15.05;;
59876;SDS011;74472;51.140;17.184;2024-01-30T01:27:49;37.97;;;16.67;;
59876;SDS011;74472;51.140;17.184;2024-01-30T01:30:17;35.85;;;17.83;;
59876;SDS011;74472;51.140;17.184;2024-01-30T01:32:47;32.85;;;15.40;;
59876;SDS011;74472;51.140;17.184;2024-01-30T01:35:22;39.58;;;17.55;;
59876;SDS011;74472;51.140;17.184;2024-01-30T01:37:50;33.35;;;14.35;;
59876;SDS011;74472;51.140;17.184;2024-01-30T01:40:26;33.33;;;16.48;;
59876;SDS011;74472;51.140;17.184;2024-01-30T01:42:52;27.73;;;13.48;;
59876;SDS011;74472;51.140;17.184;2024-01-30T01:45:20;32.00;;;15.07;;
59876;SDS011;74472;51.140;17.184;2024-01-30T01:47:47;29.23;;;13.13;;
59876;SDS011;74472;51.140;17.184;2024-01-30T01:50:16;27.85;;;14.02;;
59876;SDS011;74472;51.140;17.184;2024-01-30T01:52:46;33.28;;;15.20;;
59876;SDS011;74472;51.140;17.184;2024-01-30T01:55:12;36.10;;;16.40;;
59876;SDS011;74472;51.140;17.184;2024-01-30T01:57:39;26.35;;;13.35;;
59876;SDS011;74472;51.140;17.184;2024-01-30T02:00:05;28.50;;;14.07;;
59876;SDS011;74472;51.140;17.184;2024-01-30T02:02:31;29.55;;;15.55;;
59876;SDS011;74472;51.140;17.184;2024-01-30T02:05:00;26.80;;;14.18;;
59876;SDS011;74472;51.140;17.184;2024-01-30T02:07:26;27.05;;;12.18;;
59876;SDS011;74472;51.140;17.184;2024-01-30T02:09:53;28.15;;;14.00;;
59876;SDS011;74472;51.140;17.184;2024-01-30T02:12:18;19.40;;;11.63;;
59876;SDS011;74472;51.140;17.184;2024-01-30T02:14:44;22.48;;;11.23;;
59876;SDS011;74472;51.140;17.184;2024-01-30T02:17:13;22.25;;;11.35;;
59876;SDS011;74472;51.140;17.184;2024-01-30T02:19:38;24.38;;;11.93;;
59876;SDS011;74472;51.140;17.184;2024-01-30T02:22:04;20.60;;;11.77;;
59876;SDS011;74472;51.140;17.184;2024-01-30T02:24:30;17.67;;;9.95;;
59876;SDS011;74472;51.140;17.184;2024-01-30T02:26:55;18.08;;;9.70;;
59876;SDS011;74472;51.140;17.184;2024-01-30T02:29:20;17.30;;;8.77;;
59876;SDS011;74472;51.140;17.184;2024-01-30T02:31:46;15.20;;;8.25;;
59876;SDS011;74472;51.140;17.184;2024-01-30T02:34:11;18.80;;;9.38;;
59876;SDS011;74472;51.140;17.184;2024-01-30T02:36:37;17.55;;;9.43;;
59876;SDS011;74472;51.140;17.184;2024-01-30T02:39:02;20.15;;;11.02;;
59876;SDS011;74472;51.140;17.184;2024-01-30T02:41:28;18.80;;;11.57;;
59876;SDS011;74472;51.140;17.184;2024-01-30T02:43:53;21.77;;;11.43;;
59876;SDS011;74472;51.140;17.184;2024-01-30T02:46:18;25.02;;;13.68;;
59876;SDS011;74472;51.140;17.184;2024-01-30T02:48:44;20.33;;;11.10;;
59876;SDS011;74472;51.140;17.184;2024-01-30T02:51:09;18.75;;;10.80;;
59876;SDS011;74472;51.140;17.184;2024-01-30T02:53:34;21.80;;;12.68;;
59876;SDS011;74472;51.140;17.184;2024-01-30T02:56:01;21.52;;;12.55;;
59876;SDS011;74472;51.140;17.184;2024-01-30T02:58:27;20.17;;;12.10;;
59876;SDS011;74472;51.140;17.184;2024-01-30T03:00:52;22.70;;;12.05;;
59876;SDS011;74472;51.140;17.184;2024-01-30T03:03:18;31.63;;;13.02;;
59876;SDS011;74472;51.140;17.184;2024-01-30T03:05:43;20.88;;;12.32;;
59876;SDS011;74472;51.140;17.184;2024-01-30T03:08:08;26.88;;;14.38;;
59876;SDS011;74472;51.140;17.184;2024-01-30T03:10:33;18.70;;;12.25;;
59876;SDS011;74472;51.140;17.184;2024-01-30T03:12:59;23.52;;;12.75;;
59876;SDS011;74472;51.140;17.184;2024-01-30T03:15:24;24.60;;;13.65;;
59876;SDS011;74472;51.140;17.184;2024-01-30T03:17:49;23.45;;;13.23;;
59876;SDS011;74472;51.140;17.184;2024-01-30T03:20:15;27.60;;;12.73;;
59876;SDS011;74472;51.140;17.184;2024-01-30T03:22:40;23.63;;;12.35;;
59876;SDS011;74472;51.140;17.184;2024-01-30T03:25:06;22.23;;;12.55;;
59876;SDS011;74472;51.140;17.184;2024-01-30T03:27:31;23.98;;;12.73;;
59876;SDS011;74472;51.140;17.184;2024-01-30T03:29:57;19.90;;;12.07;;
59876;SDS011;74472;51.140;17.184;2024-01-30T03:32:22;20.90;;;13.18;;
59876;SDS011;74472;51.140;17.184;2024-01-30T03:34:47;24.55;;;13.73;;
59876;SDS011;74472;51.140;17.184;2024-01-30T03:37:13;24.30;;;14.23;;
59876;SDS011;74472;51.140;17.184;2024-01-30T03:39:38;31.67;;;16.38;;
59876;SDS011;74472;51.140;17.184;2024-01-30T03:42:03;27.55;;;15.90;;
59876;SDS011;74472;51.140;17.184;2024-01-30T03:44:29;31.58;;;16.60;;
59876;SDS011;74472;51.140;17.184;2024-01-30T03:46:54;29.85;;;16.52;;
59876;SDS011;74472;51.140;17.184;2024-01-30T03:49:19;33.88;;;16.48;;
59876;SDS011;74472;51.140;17.184;2024-01-30T03:51:44;34.33;;;15.18;;
59876;SDS011;74472;51.140;17.184;2024-01-30T03:54:12;28.48;;;15.25;;
59876;SDS011;74472;51.140;17.184;2024-01-30T03:56:37;28.35;;;14.48;;
59876;SDS011;74472;51.140;17.184;2024-01-30T03:59:02;28.10;;;12.95;;
59876;SDS011;74472;51.140;17.184;2024-01-30T04:01:28;22.40;;;12.80;;
59876;SDS011;74472;51.140;17.184;2024-01-30T04:03:53;27.85;;;13.40;;
59876;SDS011;74472;51.140;17.184;2024-01-30T04:06:18;22.73;;;12.50;;
59876;SDS011;74472;51.140;17.184;2024-01-30T04:08:44;29.40;;;14.25;;
59876;SDS011;74472;51.140;17.184;2024-01-30T04:11:09;18.98;;;12.02;;
59876;SDS011;74472;51.140;17.184;2024-01-30T04:13:34;21.70;;;12.48;;
59876;SDS011;74472;51.140;17.184;2024-01-30T04:16:00;25.10;;;13.15;;
59876;SDS011;74472;51.140;17.184;2024-01-30T04:18:26;21.88;;;12.32;;
59876;SDS011;74472;51.140;17.184;2024-01-30T04:20:52;30.52;;;14.20;;
59876;SDS011;74472;51.140;17.184;2024-01-30T04:23:17;61.38;;;26.38;;
59876;SDS011;74472;51.140;17.184;2024-01-30T04:25:42;45.47;;;23.08;;
59876;SDS011;74472;51.140;17.184;2024-01-30T04:28:08;100.47;;;45.90;;
59876;SDS011;74472;51.140;17.184;2024-01-30T04:30:36;56.33;;;28.60;;
59876;SDS011;74472;51.140;17.184;2024-01-30T04:33:02;90.97;;;41.92;;
59876;SDS011;74472;51.140;17.184;2024-01-30T04:35:27;64.05;;;31.25;;
59876;SDS011;74472;51.140;17.184;2024-01-30T04:37:53;95.18;;;43.80;;
59876;SDS011;74472;51.140;17.184;2024-01-30T04:40:18;70.10;;;36.33;;
59876;SDS011;74472;51.140;17.184;2024-01-30T04:42:43;66.10;;;30.95;;
59876;SDS011;74472;51.140;17.184;2024-01-30T04:45:09;72.10;;;35.28;;
59876;SDS011;74472;51.140;17.184;2024-01-30T04:47:34;80.38;;;35.55;;
59876;SDS011;74472;51.140;17.184;2024-01-30T04:49:59;50.15;;;22.50;;
59876;SDS011;74472;51.140;17.184;2024-01-30T04:52:25;47.80;;;22.98;;
59876;SDS011;74472;51.140;17.184;2024-01-30T04:54:51;52.75;;;25.38;;
59876;SDS011;74472;51.140;17.184;2024-01-30T04:57:16;89.18;;;37.55;;
59876;SDS011;74472;51.140;17.184;2024-01-30T04:59:42;89.20;;;37.42;;
59876;SDS011;74472;51.140;17.184;2024-01-30T05:02:07;119.13;;;45.25;;
59876;SDS011;74472;51.140;17.184;2024-01-30T05:04:32;121.35;;;46.60;;
59876;SDS011;74472;51.140;17.184;2024-01-30T05:06:58;113.80;;;45.33;;
59876;SDS011;74472;51.140;17.184;2024-01-30T05:09:23;133.43;;;49.53;;
59876;SDS011;74472;51.140;17.184;2024-01-30T05:11:48;108.38;;;46.15;;
59876;SDS011;74472;51.140;17.184;2024-01-30T05:14:14;113.95;;;44.60;;
59876;SDS011;74472;51.140;17.184;2024-01-30T05:16:40;102.55;;;41.67;;
59876;SDS011;74472;51.140;17.184;2024-01-30T05:19:06;73.25;;;30.73;;
59876;SDS011;74472;51.140;17.184;2024-01-30T05:21:31;69.75;;;31.13;;
59876;SDS011;74472;51.140;17.184;2024-01-30T05:23:56;63.25;;;26.05;;
59876;SDS011;74472;51.140;17.184;2024-01-30T05:26:22;53.88;;;24.23;;
59876;SDS011;74472;51.140;17.184;2024-01-30T05:28:48;47.05;;;20.08;;
59876;SDS011;74472;51.140;17.184;2024-01-30T05:31:13;43.53;;;21.95;;
59876;SDS011;74472;51.140;17.184;2024-01-30T05:33:40;47.08;;;22.67;;
59876;SDS011;74472;51.140;17.184;2024-01-30T05:36:05;39.88;;;18.38;;
59876;SDS011;74472;51.140;17.184;2024-01-30T05:38:31;43.10;;;22.35;;
59876;SDS011;74472;51.140;17.184;2024-01-30T05:40:57;65.15;;;28.15;;
59876;SDS011;74472;51.140;17.184;2024-01-30T05:43:25;66.80;;;31.08;;
59876;SDS011;74472;51.140;17.184;2024-01-30T05:45:51;73.18;;;32.42;;
59876;SDS011;74472;51.140;17.184;2024-01-30T05:48:17;63.45;;;32.88;;
59876;SDS011;74472;51.140;17.184;2024-01-30T05:50:42;71.13;;;33.88;;
59876;SDS011;74472;51.140;17.184;2024-01-30T05:53:07;66.68;;;32.33;;
59876;SDS011;74472;51.140;17.184;2024-01-30T05:55:33;69.72;;;30.35;;
59876;SDS011;74472;51.140;17.184;2024-01-30T05:57:58;58.65;;;30.10;;
59876;SDS011;74472;51.140;17.184;2024-01-30T06:00:23;60.65;;;29.30;;
59876;SDS011;74472;51.140;17.184;2024-01-30T06:02:49;60.47;;;28.40;;
59876;SDS011;74472;51.140;17.184;2024-01-30T06:05:14;62.30;;;31.35;;
59876;SDS011;74472;51.140;17.184;2024-01-30T06:07:39;60.55;;;30.38;;
59876;SDS011;74472;51.140;17.184;2024-01-30T06:10:05;68.72;;;31.58;;
59876;SDS011;74472;51.140;17.184;2024-01-30T06:12:31;73.20;;;34.28;;
59876;SDS011;74472;51.140;17.184;2024-01-30T06:14:57;60.45;;;32.08;;
59876;SDS011;74472;51.140;17.184;2024-01-30T06:17:22;59.55;;;30.63;;
59876;SDS011;74472;51.140;17.184;2024-01-30T06:19:48;64.70;;;30.08;;
59876;SDS011;74472;51.140;17.184;2024-01-30T06:22:14;50.38;;;26.98;;
59876;SDS011;74472;51.140;17.184;2024-01-30T06:24:39;49.55;;;26.15;;
59876;SDS011;74472;51.140;17.184;2024-01-30T06:27:04;53.40;;;24.13;;
59876;SDS011;74472;51.140;17.184;2024-01-30T06:29:30;45.05;;;23.48;;
59876;SDS011;74472;51.140;17.184;2024-01-30T06:31:55;40.97;;;20.63;;
59876;SDS011;74472;51.140;17.184;2024-01-30T06:34:21;41.45;;;19.15;;
59876;SDS011;74472;51.140;17.184;2024-01-30T06:36:46;38.80;;;20.27;;
59876;SDS011;74472;51.140;17.184;2024-01-30T06:39:11;36.53;;;17.58;;
59876;SDS011;74472;51.140;17.184;2024-01-30T06:41:37;33.53;;;18.05;;
59876;SDS011;74472;51.140;17.184;2024-01-30T06:44:02;29.52;;;16.90;;
59876;SDS011;74472;51.140;17.184;2024-01-30T06:46:37;31.13;;;17.08;;
59876;SDS011;74472;51.140;17.184;2024-01-30T06:49:03;27.67;;;14.98;;
59876;SDS011;74472;51.140;17.184;2024-01-30T06:51:28;25.73;;;15.57;;
59876;SDS011;74472;51.140;17.184;2024-01-30T06:53:53;32.63;;;14.43;;
59876;SDS011;74472;51.140;17.184;2024-01-30T06:56:18;27.90;;;13.88;;
59876;SDS011;74472;51.140;17.184;2024-01-30T06:58:47;25.02;;;13.68;;
59876;SDS011;74472;51.140;17.184;2024-01-30T07:01:13;25.17;;;14.18;;
59876;SDS011;74472;51.140;17.184;2024-01-30T07:03:39;30.33;;;15.25;;
59876;SDS011;74472;51.140;17.184;2024-01-30T07:06:04;30.75;;;17.10;;
59876;SDS011;74472;51.140;17.184;2024-01-30T07:08:30;26.20;;;15.40;;
59876;SDS011;74472;51.140;17.184;2024-01-30T07:10:55;27.20;;;15.20;;
59876;SDS011;74472;51.140;17.184;2024-01-30T07:13:21;29.60;;;15.15;;
59876;SDS011;74472;51.140;17.184;2024-01-30T07:15:46;31.23;;;16.00;;
59876;SDS011;74472;51.140;17.184;2024-01-30T07:18:11;29.38;;;16.27;;
59876;SDS011;74472;51.140;17.184;2024-01-30T07:20:38;26.02;;;14.23;;
59876;SDS011;74472;51.140;17.184;2024-01-30T07:23:10;25.85;;;13.15;;
59876;SDS011;74472;51.140;17.184;2024-01-30T07:25:38;24.98;;;14.77;;
59876;SDS011;74472;51.140;17.184;2024-01-30T07:28:06;24.63;;;14.15;;
59876;SDS011;74472;51.140;17.184;2024-01-30T07:30:32;27.00;;;16.85;;
59876;SDS011;74472;51.140;17.184;2024-01-30T07:32:57;29.38;;;18.67;;
59876;SDS011;74472;51.140;17.184;2024-01-30T07:35:22;41.25;;;22.90;;
59876;SDS011;74472;51.140;17.184;2024-01-30T07:37:48;42.33;;;21.60;;
59876;SDS011;74472;51.140;17.184;2024-01-30T07:40:13;43.17;;;21.75;;
59876;SDS011;74472;51.140;17.184;2024-01-30T07:42:38;44.35;;;22.83;;
59876;SDS011;74472;51.140;17.184;2024-01-30T07:45:04;45.05;;;22.58;;
59876;SDS011;74472;51.140;17.184;2024-01-30T07:47:29;51.13;;;27.45;;
59876;SDS011;74472;51.140;17.184;2024-01-30T07:49:55;44.58;;;22.50;;
59876;SDS011;74472;51.140;17.184;2024-01-30T07:52:20;46.47;;;23.20;;
59876;SDS011;74472;51.140;17.184;2024-01-30T07:54:45;35.67;;;20.55;;
59876;SDS011;74472;51.140;17.184;2024-01-30T07:57:10;28.08;;;16.10;;
59876;SDS011;74472;51.140;17.184;2024-01-30T07:59:36;22.70;;;12.82;;
59876;SDS011;74472;51.140;17.184;2024-01-30T08:02:01;29.75;;;12.90;;
59876;SDS011;74472;51.140;17.184;2024-01-30T08:04:26;18.33;;;10.63;;
59876;SDS011;74472;51.140;17.184;2024-01-30T08:06:52;18.17;;;11.35;;
59876;SDS011;74472;51.140;17.184;2024-01-30T08:09:17;21.27;;;12.02;;
59876;SDS011;74472;51.140;17.184;2024-01-30T08:11:43;22.48;;;9.48;;
59876;SDS011;74472;51.140;17.184;2024-01-30T08:14:08;17.92;;;9.63;;
59876;SDS011;74472;51.140;17.184;2024-01-30T08:16:34;14.68;;;8.65;;
59876;SDS011;74472;51.140;17.184;2024-01-30T08:18:59;16.73;;;8.13;;
59876;SDS011;74472;51.140;17.184;2024-01-30T08:21:25;15.25;;;8.32;;
59876;SDS011;74472;51.140;17.184;2024-01-30T08:23:50;13.95;;;8.07;;
59876;SDS011;74472;51.140;17.184;2024-01-30T08:26:16;17.13;;;8.52;;
59876;SDS011;74472;51.140;17.184;2024-01-30T08:28:41;14.07;;;7.60;;
59876;SDS011;74472;51.140;17.184;2024-01-30T08:31:06;11.65;;;6.80;;
59876;SDS011;74472;51.140;17.184;2024-01-30T08:33:31;13.88;;;7.55;;
59876;SDS011;74472;51.140;17.184;2024-01-30T08:35:57;15.57;;;6.75;;
59876;SDS011;74472;51.140;17.184;2024-01-30T08:38:22;11.80;;;5.88;;
59876;SDS011;74472;51.140;17.184;2024-01-30T08:40:47;10.48;;;5.53;;
59876;SDS011;74472;51.140;17.184;2024-01-30T08:43:13;10.73;;;5.78;;
59876;SDS011;74472;51.140;17.184;2024-01-30T08:45:38;13.05;;;6.38;;
59876;SDS011;74472;51.140;17.184;2024-01-30T08:48:03;14.38;;;5.75;;
59876;SDS011;74472;51.140;17.184;2024-01-30T08:50:29;10.70;;;5.93;;
59876;SDS011;74472;51.140;17.184;2024-01-30T08:52:54;11.70;;;5.78;;
59876;SDS011;74472;51.140;17.184;2024-01-30T08:55:20;11.65;;;6.05;;
59876;SDS011;74472;51.140;17.184;2024-01-30T08:57:45;10.00;;;5.03;;
59876;SDS011;74472;51.140;17.184;2024-01-30T09:00:10;10.38;;;5.43;;
59876;SDS011;74472;51.140;17.184;2024-01-30T09:02:36;8.77;;;4.28;;
59876;SDS011;74472;51.140;17.184;2024-01-30T09:05:02;7.32;;;4.60;;
59876;SDS011;74472;51.140;17.184;2024-01-30T09:07:27;7.78;;;4.97;;
59876;SDS011;74472;51.140;17.184;2024-01-30T09:09:53;10.52;;;5.43;;
59876;SDS011;74472;51.140;17.184;2024-01-30T09:12:18;11.23;;;6.15;;
59876;SDS011;74472;51.140;17.184;2024-01-30T09:14:43;11.77;;;5.60;;
59876;SDS011;74472;51.140;17.184;2024-01-30T09:17:09;10.32;;;4.82;;
59876;SDS011;74472;51.140;17.184;2024-01-30T09:19:34;10.02;;;4.53;;
59876;SDS011;74472;51.140;17.184;2024-01-30T09:21:59;8.45;;;4.18;;
59876;SDS011;74472;51.140;17.184;2024-01-30T09:24:25;7.03;;;4.05;;
59876;SDS011;74472;51.140;17.184;2024-01-30T09:26:51;11.65;;;4.65;;
59876;SDS011;74472;51.140;17.184;2024-01-30T09:29:16;10.05;;;4.18;;
59876;SDS011;74472;51.140;17.184;2024-01-30T09:31:45;6.88;;;4.65;;
59876;SDS011;74472;51.140;17.184;2024-01-30T09:34:10;11.70;;;4.05;;
59876;SDS011;74472;51.140;17.184;2024-01-30T09:36:36;7.88;;;4.43;;
59876;SDS011;74472;51.140;17.184;2024-01-30T09:39:01;10.90;;;4.15;;
59876;SDS011;74472;51.140;17.184;2024-01-30T09:41:27;5.53;;;3.83;;
59876;SDS011;74472;51.140;17.184;2024-01-30T09:43:52;6.13;;;4.20;;
59876;SDS011;74472;51.140;17.184;2024-01-30T09:46:22;10.93;;;4.35;;
59876;SDS011;74472;51.140;17.184;2024-01-30T09:48:52;8.95;;;4.22;;
59876;SDS011;74472;51.140;17.184;2024-01-30T09:51:20;8.98;;;3.90;;
59876;SDS011;74472;51.140;17.184;2024-01-30T09:53:46;8.90;;;4.88;;
59876;SDS011;74472;51.140;17.184;2024-01-30T09:56:13;7.70;;;3.85;;
59876;SDS011;74472;51.140;17.184;2024-01-30T09:58:39;8.07;;;4.03;;
59876;SDS011;74472;51.140;17.184;2024-01-30T10:01:07;7.05;;;3.78;;
59876;SDS011;74472;51.140;17.184;2024-01-30T10:03:32;7.20;;;3.72;;
59876;SDS011;74472;51.140;17.184;2024-01-30T10:05:57;8.40;;;4.45;;
59876;SDS011;74472;51.140;17.184;2024-01-30T10:08:23;6.63;;;4.10;;
59876;SDS011;74472;51.140;17.184;2024-01-30T10:10:51;6.78;;;3.58;;
59876;SDS011;74472;51.140;17.184;2024-01-30T10:13:16;6.70;;;4.22;;
59876;SDS011;74472;51.140;17.184;2024-01-30T10:15:42;8.02;;;4.07;;
59876;SDS011;74472;51.140;17.184;2024-01-30T10:18:10;8.75;;;4.07;;
59876;SDS011;74472;51.140;17.184;2024-01-30T10:20:36;7.95;;;4.70;;
59876;SDS011;74472;51.140;17.184;2024-01-30T10:23:02;8.57;;;4.43;;
59876;SDS011;74472;51.140;17.184;2024-01-30T10:25:28;7.90;;;4.20;;
59876;SDS011;74472;51.140;17.184;2024-01-30T10:27:54;10.23;;;4.30;;
59876;SDS011;74472;51.140;17.184;2024-01-30T10:30:23;8.13;;;4.72;;
59876;SDS011;74472;51.140;17.184;2024-01-30T10:32:49;6.30;;;4.13;;
59876;SDS011;74472;51.140;17.184;2024-01-30T10:35:15;8.77;;;4.82;;
59876;SDS011;74472;51.140;17.184;2024-01-30T10:37:43;9.85;;;3.85;;
59876;SDS011;74472;51.140;17.184;2024-01-30T10:40:09;9.25;;;4.85;;
59876;SDS011;74472;51.140;17.184;2024-01-30T10:42:38;10.27;;;4.80;;
59876;SDS011;74472;51.140;17.184;2024-01-30T10:45:08;8.13;;;4.18;;
59876;SDS011;74472;51.140;17.184;2024-01-30T10:47:53;10.27;;;4.15;;
59876;SDS011;74472;51.140;17.184;2024-01-30T10:50:19;5.90;;;3.70;;
59876;SDS011;74472;51.140;17.184;2024-01-30T10:52:45;8.23;;;4.03;;
59876;SDS011;74472;51.140;17.184;2024-01-30T10:55:12;6.65;;;3.65;;
59876;SDS011;74472;51.140;17.184;2024-01-30T10:57:39;5.05;;;3.55;;
59876;SDS011;74472;51.140;17.184;2024-01-30T11:00:08;7.72;;;4.15;;
59876;SDS011;74472;51.140;17.184;2024-01-30T11:02:36;6.88;;;3.72;;
59876;SDS011;74472;51.140;17.184;2024-01-30T11:05:04;6.60;;;3.50;;
59876;SDS011;74472;51.140;17.184;2024-01-30T11:07:29;5.88;;;3.65;;
59876;SDS011;74472;51.140;17.184;2024-01-30T11:12:23;5.88;;;3.63;;
59876;SDS011;74472;51.140;17.184;2024-01-30T11:14:50;9.20;;;4.15;;
59876;SDS011;74472;51.140;17.184;2024-01-30T11:17:42;5.78;;;3.33;;
59876;SDS011;74472;51.140;17.184;2024-01-30T11:22:51;8.05;;;3.72;;
59876;SDS011;74472;51.140;17.184;2024-01-30T11:25:19;6.57;;;3.75;;
59876;SDS011;74472;51.140;17.184;2024-01-30T11:27:46;8.60;;;3.53;;
59876;SDS011;74472;51.140;17.184;2024-01-30T11:33:00;7.63;;;4.10;;
59876;SDS011;74472;51.140;17.184;2024-01-30T11:35:25;6.22;;;3.45;;
59876;SDS011;74472;51.140;17.184;2024-01-30T11:37:50;8.05;;;4.45;;
59876;SDS011;74472;51.140;17.184;2024-01-30T11:40:16;5.90;;;3.22;;
59876;SDS011;74472;51.140;17.184;2024-01-30T11:42:41;6.78;;;3.90;;
59876;SDS011;74472;51.140;17.184;2024-01-30T11:45:08;7.63;;;3.72;;
59876;SDS011;74472;51.140;17.184;2024-01-30T11:47:34;8.27;;;3.60;;
59876;SDS011;74472;51.140;17.184;2024-01-30T11:50:02;9.30;;;4.38;;
59876;SDS011;74472;51.140;17.184;2024-01-30T11:52:31;7.90;;;3.85;;
59876;SDS011;74472;51.140;17.184;2024-01-30T11:54:56;6.70;;;3.50;;
59876;SDS011;74472;51.140;17.184;2024-01-30T11:57:22;6.30;;;4.03;;
59876;SDS011;74472;51.140;17.184;2024-01-30T11:59:47;6.32;;;4.32;;
59876;SDS011;74472;51.140;17.184;2024-01-30T12:02:16;5.15;;;3.35;;
59876;SDS011;74472;51.140;17.184;2024-01-30T12:04:42;10.55;;;5.53;;
59876;SDS011;74472;51.140;17.184;2024-01-30T12:07:07;6.25;;;3.92;;
59876;SDS011;74472;51.140;17.184;2024-01-30T12:09:33;6.63;;;4.93;;
59876;SDS011;74472;51.140;17.184;2024-01-30T12:11:58;8.60;;;5.25;;
59876;SDS011;74472;51.140;17.184;2024-01-30T12:14:24;4.78;;;3.83;;
59876;SDS011;74472;51.140;17.184;2024-01-30T12:16:51;8.60;;;4.63;;
59876;SDS011;74472;51.140;17.184;2024-01-30T12:19:25;7.40;;;5.38;;
59876;SDS011;74472;51.140;17.184;2024-01-30T12:21:57;9.85;;;5.30;;
59876;SDS011;74472;51.140;17.184;2024-01-30T12:24:24;11.95;;;6.68;;
59876;SDS011;74472;51.140;17.184;2024-01-30T12:26:50;9.80;;;6.20;;
59876;SDS011;74472;51.140;17.184;2024-01-30T12:29:16;7.85;;;4.13;;
59876;SDS011;74472;51.140;17.184;2024-01-30T12:31:42;9.38;;;4.50;;
59876;SDS011;74472;51.140;17.184;2024-01-30T12:34:07;8.18;;;4.00;;
59876;SDS011;74472;51.140;17.184;2024-01-30T12:36:33;7.72;;;3.50;;
59876;SDS011;74472;51.140;17.184;2024-01-30T12:39:00;5.80;;;3.95;;
59876;SDS011;74472;51.140;17.184;2024-01-30T12:41:25;6.82;;;4.40;;
59876;SDS011;74472;51.140;17.184;2024-01-30T12:43:53;7.15;;;4.22;;
59876;SDS011;74472;51.140;17.184;2024-01-30T12:46:19;6.43;;;4.20;;
59876;SDS011;74472;51.140;17.184;2024-01-30T12:48:44;7.00;;;4.80;;
59876;SDS011;74472;51.140;17.184;2024-01-30T12:51:10;10.13;;;4.78;;
59876;SDS011;74472;51.140;17.184;2024-01-30T12:53:35;8.68;;;5.55;;
59876;SDS011;74472;51.140;17.184;2024-01-30T12:56:00;8.45;;;5.07;;
59876;SDS011;74472;51.140;17.184;2024-01-30T12:58:26;8.48;;;4.53;;
59876;SDS011;74472;51.140;17.184;2024-01-30T13:00:51;8.00;;;4.90;;
59876;SDS011;74472;51.140;17.184;2024-01-30T13:03:16;8.73;;;4.60;;
59876;SDS011;74472;51.140;17.184;2024-01-30T13:05:42;7.35;;;4.40;;
59876;SDS011;74472;51.140;17.184;2024-01-30T13:08:07;9.07;;;4.80;;
59876;SDS011;74472;51.140;17.184;2024-01-30T13:10:33;6.55;;;3.58;;
59876;SDS011;74472;51.140;17.184;2024-01-30T13:12:58;7.35;;;4.20;;
59876;SDS011;74472;51.140;17.184;2024-01-30T13:15:23;6.93;;;3.95;;
59876;SDS011;74472;51.140;17.184;2024-01-30T13:17:49;10.93;;;4.43;;
59876;SDS011;74472;51.140;17.184;2024-01-30T13:20:15;7.47;;;4.43;;
59876;SDS011;74472;51.140;17.184;2024-01-30T13:22:44;8.02;;;4.63;;
59876;SDS011;74472;51.140;17.184;2024-01-30T13:25:10;9.02;;;4.03;;
59876;SDS011;74472;51.140;17.184;2024-01-30T13:27:35;17.58;;;9.30;;
59876;SDS011;74472;51.140;17.184;2024-01-30T13:30:02;19.02;;;9.15;;
59876;SDS011;74472;51.140;17.184;2024-01-30T13:32:27;12.82;;;5.80;;
59876;SDS011;74472;51.140;17.184;2024-01-30T13:34:53;7.38;;;4.65;;
59876;SDS011;74472;51.140;17.184;2024-01-30T13:37:18;12.05;;;6.10;;
59876;SDS011;74472;51.140;17.184;2024-01-30T13:39:43;13.32;;;6.55;;
59876;SDS011;74472;51.140;17.184;2024-01-30T13:42:08;8.95;;;5.25;;
59876;SDS011;74472;51.140;17.184;2024-01-30T13:44:35;8.70;;;4.20;;
59876;SDS011;74472;51.140;17.184;2024-01-30T13:47:00;7.72;;;4.45;;
59876;SDS011;74472;51.140;17.184;2024-01-30T13:49:26;10.07;;;4.95;;
59876;SDS011;74472;51.140;17.184;2024-01-30T13:51:52;7.63;;;4.60;;
59876;SDS011;74472;51.140;17.184;2024-01-30T13:54:17;9.50;;;5.30;;
59876;SDS011;74472;51.140;17.184;2024-01-30T13:56:43;10.43;;;4.68;;
59876;SDS011;74472;51.140;17.184;2024-01-30T13:59:08;11.80;;;4.90;;
59876;SDS011;74472;51.140;17.184;2024-01-30T14:01:33;9.55;;;4.85;;
59876;SDS011;74472;51.140;17.184;2024-01-30T14:03:59;9.93;;;5.38;;
59876;SDS011;74472;51.140;17.184;2024-01-30T14:06:24;17.45;;;10.93;;
59876;SDS011;74472;51.140;17.184;2024-01-30T14:08:49;17.80;;;10.48;;
59876;SDS011;74472;51.140;17.184;2024-01-30T14:11:15;12.35;;;8.20;;
59876;SDS011;74472;51.140;17.184;2024-01-30T14:13:40;12.75;;;6.60;;
59876;SDS011;74472;51.140;17.184;2024-01-30T14:16:05;12.07;;;6.00;;
59876;SDS011;74472;51.140;17.184;2024-01-30T14:18:31;10.70;;;5.50;;